createdAt,value
2024-02-09T00:00:42.217Z,86.10
2024-02-09T00:03:30.241Z,86.23
2024-02-09T00:05:58.164Z,86.45
2024-02-09T00:08:25.952Z,86.38
2024-02-09T00:10:54.137Z,86.61
2024-02-09T00:13:21.884Z,86.89
2024-02-09T00:15:49.781Z,86.98
2024-02-09T00:18:19.053Z,86.91
2024-02-09T00:20:49.166Z,87.11
2024-02-09T00:23:17.430Z,87.27
2024-02-09T00:25:45.342Z,87.08
2024-02-09T00:28:13.964Z,86.64
2024-02-09T00:30:42.782Z,86.63
2024-02-09T00:33:10.759Z,86.65
2024-02-09T00:35:41.966Z,86.57
2024-02-09T00:38:12.901Z,86.58
2024-02-09T00:40:41.011Z,86.41
2024-02-09T00:43:09.161Z,86.39
2024-02-09T00:45:37.370Z,86.31
2024-02-09T00:48:07.469Z,86.37
2024-02-09T00:50:35.388Z,86.35
2024-02-09T00:53:05.855Z,86.41
2024-02-09T00:55:34.162Z,86.62
2024-02-09T00:58:02.862Z,86.48
2024-02-09T01:00:31.645Z,86.41
2024-02-09T01:03:01.092Z,86.43
2024-02-09T01:05:29.900Z,86.46
2024-02-09T01:07:58.568Z,86.51
2024-02-09T01:10:26.523Z,86.56
2024-02-09T01:13:13.148Z,86.60
2024-02-09T01:15:59.770Z,86.85
2024-02-09T01:18:46.055Z,86.87
2024-02-09T01:21:32.803Z,87.27
2024-02-09T01:24:19.044Z,87.13
2024-02-09T01:27:05.473Z,87.14
2024-02-09T01:29:51.667Z,86.89
2024-02-09T01:32:38.347Z,86.83
2024-02-09T01:35:25.207Z,86.95
2024-02-09T01:38:11.514Z,86.97
2024-02-09T01:40:58.141Z,87.10
2024-02-09T01:43:44.610Z,87.24
2024-02-09T01:46:31.417Z,87.19
2024-02-09T01:49:18.237Z,87.22
2024-02-09T01:52:05.550Z,87.13
2024-02-09T01:54:52.367Z,87.15
2024-02-09T01:57:39.536Z,87.24
2024-02-09T02:00:27.581Z,87.33
2024-02-09T02:03:14.433Z,87.51
2024-02-09T02:06:01.739Z,87.41
2024-02-09T02:08:48.220Z,87.43
2024-02-09T02:11:34.476Z,87.56
2024-02-09T02:14:20.728Z,87.62
2024-02-09T02:17:07.115Z,87.75
2024-02-09T02:19:53.737Z,87.69
2024-02-09T02:22:46.168Z,87.80
2024-02-09T02:25:32.927Z,87.86
2024-02-09T02:28:19.601Z,87.86
2024-02-09T02:31:05.981Z,87.92
2024-02-09T02:33:52.515Z,87.98
2024-02-09T02:36:39.076Z,87.95
2024-02-09T02:39:25.572Z,87.98
2024-02-09T02:41:53.218Z,88.09
2024-02-09T02:44:21.087Z,88.09
2024-02-09T02:46:52.072Z,88.16
2024-02-09T02:49:38.973Z,88.22
2024-02-09T02:52:25.680Z,88.27
2024-02-09T02:55:12.004Z,88.29
2024-02-09T02:57:58.627Z,88.30
2024-02-09T03:00:45.197Z,88.33
2024-02-09T03:03:31.711Z,88.42
2024-02-09T03:05:59.490Z,88.52
2024-02-09T03:10:57.992Z,88.54
2024-02-09T03:13:25.843Z,88.59
2024-02-09T03:15:54.713Z,88.69
2024-02-09T03:18:26.820Z,88.69
2024-02-09T03:21:00.001Z,88.88
2024-02-09T03:23:28.198Z,88.96
2024-02-09T03:25:56.539Z,89.02
2024-02-09T03:28:24.436Z,89.13
2024-02-09T03:30:52.349Z,89.11
2024-02-09T03:33:20.272Z,88.82
2024-02-09T03:35:48.174Z,88.88
2024-02-09T03:38:16.160Z,88.87
2024-02-09T03:40:43.970Z,88.84
2024-02-09T03:43:14.555Z,88.93
2024-02-09T03:45:43.427Z,88.98
2024-02-09T03:48:11.777Z,89.12
2024-02-09T03:50:39.937Z,89.34
2024-02-09T03:53:10.339Z,89.39
2024-02-09T03:55:43.144Z,89.41
2024-02-09T03:58:11.124Z,89.55
2024-02-09T04:00:38.949Z,89.65
2024-02-09T04:03:06.733Z,89.83
2024-02-09T04:05:35.143Z,90.00
2024-02-09T04:08:05.632Z,89.92
2024-02-09T04:10:42.913Z,89.77
2024-02-09T04:13:14.438Z,89.87
2024-02-09T04:15:42.642Z,90.00
2024-02-09T04:18:11.356Z,90.05
2024-02-09T04:20:40.027Z,90.11
2024-02-09T04:23:09.323Z,90.26
2024-02-09T04:25:38.253Z,90.38
2024-02-09T04:28:06.635Z,90.48
2024-02-09T04:30:34.590Z,90.55
2024-02-09T04:33:02.674Z,90.62
2024-02-09T04:35:30.576Z,90.67
2024-02-09T04:37:58.831Z,90.72
2024-02-09T04:40:26.861Z,90.63
2024-02-09T04:42:54.888Z,90.68
2024-02-09T04:45:24.240Z,90.67
2024-02-09T04:47:52.216Z,90.64
2024-02-09T04:50:22.695Z,90.56
2024-02-09T04:52:51.360Z,90.47
2024-02-09T04:55:19.564Z,90.50
2024-02-09T04:57:47.468Z,90.46
2024-02-09T05:00:15.632Z,90.26
2024-02-09T05:02:47.910Z,90.20
2024-02-09T05:05:15.908Z,90.01
2024-02-09T05:07:43.887Z,90.10
2024-02-09T05:10:13.090Z,90.11
2024-02-09T05:12:40.974Z,90.20
2024-02-09T05:15:09.475Z,90.04
2024-02-09T05:17:38.317Z,89.98
2024-02-09T05:20:07.181Z,89.90
2024-02-09T05:22:35.004Z,89.91
2024-02-09T05:25:04.029Z,89.91
2024-02-09T05:27:34.077Z,89.95
2024-02-09T05:30:02.141Z,90.13
2024-02-09T05:32:31.511Z,90.27
2024-02-09T05:34:59.632Z,90.24
2024-02-09T05:37:27.913Z,90.01
2024-02-09T05:39:57.603Z,89.98
2024-02-09T05:42:26.218Z,90.06
2024-02-09T05:44:54.167Z,90.19
2024-02-09T05:47:21.973Z,90.21
2024-02-09T05:49:49.862Z,90.20
2024-02-09T05:52:17.642Z,90.25
2024-02-09T05:54:45.350Z,90.19
2024-02-09T05:57:14.939Z,90.18
2024-02-09T05:59:45.545Z,90.17
2024-02-09T06:02:13.460Z,90.18
2024-02-09T06:04:41.333Z,90.21
2024-02-09T06:07:09.305Z,90.22
2024-02-09T06:09:38.426Z,90.21
2024-02-09T06:12:07.224Z,90.26
2024-02-09T06:14:35.190Z,90.29
2024-02-09T06:17:02.947Z,90.33
2024-02-09T06:19:30.825Z,90.36
2024-02-09T06:21:59.813Z,90.39
2024-02-09T06:24:27.727Z,90.38
2024-02-09T06:26:56.012Z,90.38
2024-02-09T06:29:23.960Z,90.39
2024-02-09T06:31:58.304Z,90.39
2024-02-09T06:34:27.038Z,90.44
2024-02-09T06:36:55.232Z,90.46
2024-02-09T06:39:24.586Z,90.50
2024-02-09T06:41:52.460Z,90.48
2024-02-09T06:44:20.580Z,90.51
2024-02-09T06:46:48.343Z,90.54
2024-02-09T06:49:17.065Z,90.59
2024-02-09T06:51:45.728Z,90.69
2024-02-09T06:54:13.586Z,90.62
2024-02-09T06:56:42.030Z,90.59
2024-02-09T06:59:11.312Z,90.59
2024-02-09T07:01:40.867Z,90.63
2024-02-09T07:04:11.098Z,90.71
2024-02-09T07:06:43.053Z,90.75
2024-02-09T07:11:42.660Z,90.80
2024-02-09T07:14:10.406Z,90.79
2024-02-09T07:16:38.172Z,90.78
2024-02-09T07:19:06.111Z,90.77
2024-02-09T07:21:33.943Z,90.81
2024-02-09T07:24:06.545Z,90.83
2024-02-09T07:26:36.571Z,90.80
2024-02-09T07:29:05.180Z,90.81
2024-02-09T07:31:33.075Z,90.78
2024-02-09T07:34:01.075Z,90.78
2024-02-09T07:36:29.508Z,90.74
2024-02-09T07:38:58.787Z,90.74
2024-02-09T07:41:29.529Z,90.71
2024-02-09T07:43:57.692Z,90.73
2024-02-09T07:46:26.774Z,90.67
2024-02-09T07:48:57.755Z,90.64
2024-02-09T07:51:25.640Z,90.62
2024-02-09T07:53:55.695Z,90.63
2024-02-09T07:56:26.157Z,90.57
2024-02-09T07:58:54.150Z,90.52
2024-02-09T08:01:22.945Z,90.46
2024-02-09T08:03:53.509Z,90.40
2024-02-09T08:06:22.428Z,90.33
2024-02-09T08:08:56.516Z,90.29
2024-02-09T08:11:24.707Z,90.26
2024-02-09T08:13:52.976Z,90.22
2024-02-09T08:16:24.520Z,90.17
2024-02-09T08:18:53.068Z,90.14
2024-02-09T08:21:23.391Z,90.08
2024-02-09T08:23:51.508Z,90.04
2024-02-09T08:26:19.580Z,89.99
2024-02-09T08:28:49.471Z,89.93
2024-02-09T08:31:18.520Z,89.87
2024-02-09T08:33:51.232Z,89.84
2024-02-09T08:36:22.815Z,89.82
2024-02-09T08:38:52.201Z,89.81
2024-02-09T08:41:20.169Z,89.83
2024-02-09T08:43:48.788Z,89.79
2024-02-09T08:46:17.173Z,89.75
2024-02-09T08:48:45.183Z,89.77
2024-02-09T08:51:13.017Z,89.80
2024-02-09T08:53:42.065Z,89.85
2024-02-09T08:56:13.295Z,89.90
2024-02-09T08:58:43.181Z,89.90
2024-02-09T09:01:11.318Z,89.97
2024-02-09T09:03:39.498Z,89.98
2024-02-09T09:06:09.061Z,90.01
2024-02-09T09:08:36.948Z,90.04
2024-02-09T09:11:06.423Z,90.04
2024-02-09T09:13:34.371Z,90.04
2024-02-09T09:16:02.254Z,90.05
2024-02-09T09:18:30.716Z,90.04
2024-02-09T09:20:58.673Z,90.00
2024-02-09T09:23:26.440Z,89.93
2024-02-09T09:25:54.563Z,89.92
2024-02-09T09:28:22.544Z,89.95
2024-02-09T09:30:50.488Z,89.98
2024-02-09T09:33:18.214Z,90.00
2024-02-09T09:35:49.259Z,90.01
2024-02-09T09:38:20.261Z,90.07
2024-02-09T09:40:53.655Z,90.13
2024-02-09T09:43:26.195Z,90.21
2024-02-09T09:46:00.181Z,90.30
2024-02-09T09:48:28.404Z,90.34
2024-02-09T09:50:57.287Z,90.47
2024-02-09T09:53:30.566Z,90.53
2024-02-09T09:56:00.995Z,90.59
2024-02-09T09:58:28.942Z,90.64
2024-02-09T10:00:57.894Z,90.70
2024-02-09T10:03:29.185Z,90.70
2024-02-09T10:05:57.164Z,90.70
2024-02-09T10:08:25.354Z,90.69
2024-02-09T10:10:53.628Z,90.69
2024-02-09T10:13:24.110Z,90.71
2024-02-09T10:15:53.157Z,90.72
2024-02-09T10:18:21.009Z,90.74
2024-02-09T10:20:49.592Z,90.75
2024-02-09T10:23:17.936Z,90.75
2024-02-09T10:25:46.297Z,90.71
2024-02-09T10:28:16.509Z,90.69
2024-02-09T10:30:45.068Z,90.65
2024-02-09T10:33:13.056Z,90.61
2024-02-09T10:35:42.067Z,90.55
2024-02-09T10:38:10.020Z,90.53
2024-02-09T10:40:37.956Z,90.52
2024-02-09T10:43:06.074Z,90.51
2024-02-09T10:45:36.876Z,90.50
2024-02-09T10:50:37.675Z,90.54
2024-02-09T10:53:13.282Z,90.58
2024-02-09T10:55:45.713Z,90.64
2024-02-09T10:58:17.065Z,90.73
2024-02-09T11:00:45.304Z,90.80
2024-02-09T11:03:13.693Z,90.86
2024-02-09T11:05:42.392Z,90.96
2024-02-09T11:08:11.377Z,91.06
2024-02-09T11:10:39.318Z,91.14
2024-02-09T11:13:07.450Z,91.19
2024-02-09T11:15:35.663Z,91.26
2024-02-09T11:18:04.253Z,91.37
2024-02-09T11:20:33.961Z,91.44
2024-02-09T11:23:02.597Z,91.53
2024-02-09T11:25:35.601Z,91.64
2024-02-09T11:28:08.635Z,91.73
2024-02-09T11:30:37.885Z,91.87
2024-02-09T11:33:07.736Z,91.97
2024-02-09T11:35:36.320Z,92.07
2024-02-09T11:38:06.691Z,92.09
2024-02-09T11:40:34.982Z,92.10
2024-02-09T11:43:03.109Z,92.13
2024-02-09T11:45:32.263Z,92.18
2024-02-09T11:48:00.043Z,92.23
2024-02-09T11:50:29.475Z,92.32
2024-02-09T11:53:11.021Z,92.34
2024-02-09T11:55:43.316Z,92.36
2024-02-09T11:58:12.600Z,92.37
2024-02-09T12:00:42.412Z,92.39
2024-02-09T12:03:16.522Z,92.40
2024-02-09T12:05:48.080Z,92.44
2024-02-09T12:08:20.507Z,92.47
2024-02-09T12:10:52.367Z,92.51
2024-02-09T12:13:20.863Z,92.54
2024-02-09T12:15:49.137Z,92.56
2024-02-09T12:18:17.620Z,92.57
2024-02-09T12:20:45.826Z,92.59
2024-02-09T12:23:13.753Z,92.59
2024-02-09T12:25:42.047Z,92.60
2024-02-09T12:28:11.747Z,92.61
2024-02-09T12:30:40.935Z,92.60
2024-02-09T12:33:09.526Z,92.60
2024-02-09T12:35:37.425Z,92.59
2024-02-09T12:38:05.952Z,92.60
2024-02-09T12:40:34.826Z,92.60
2024-02-09T12:43:04.427Z,92.61
2024-02-09T12:45:32.789Z,92.61
2024-02-09T12:48:00.753Z,92.62
2024-02-09T12:50:30.309Z,92.63
2024-02-09T12:52:59.050Z,92.66
2024-02-09T12:55:28.862Z,92.66
2024-02-09T12:57:56.973Z,92.67
2024-02-09T13:00:24.951Z,92.70
2024-02-09T13:02:54.663Z,92.73
2024-02-09T13:05:22.928Z,92.75
2024-02-09T13:07:51.895Z,92.74
2024-02-09T13:10:19.822Z,92.77
2024-02-09T13:12:47.697Z,92.78
2024-02-09T13:15:16.663Z,92.81
2024-02-09T13:17:44.485Z,92.83
2024-02-09T13:20:13.220Z,92.86
2024-02-09T13:22:41.271Z,92.87
2024-02-09T13:25:15.554Z,92.87
2024-02-09T13:27:47.079Z,92.89
2024-02-09T13:30:18.589Z,92.92
2024-02-09T13:32:48.662Z,92.94
2024-02-09T13:35:19.296Z,92.93
2024-02-09T13:37:50.140Z,92.94
2024-02-09T13:40:20.546Z,92.95
2024-02-09T13:42:51.021Z,92.97
2024-02-09T13:45:27.335Z,92.99
2024-02-09T13:47:56.688Z,93.00
2024-02-09T13:50:26.659Z,93.01
2024-02-09T13:52:55.564Z,93.02
2024-02-09T13:55:24.607Z,93.04
2024-02-09T13:57:52.669Z,93.06
2024-02-09T14:00:22.790Z,93.09
2024-02-09T14:02:50.930Z,93.09
2024-02-09T14:05:19.799Z,93.11
2024-02-09T14:07:48.887Z,93.13
2024-02-09T14:10:16.917Z,93.13
2024-02-09T14:12:44.938Z,93.17
2024-02-09T14:15:13.558Z,93.21
2024-02-09T14:17:41.529Z,93.22
2024-02-09T14:20:10.578Z,93.24
2024-02-09T14:22:38.518Z,93.24
2024-02-09T14:25:06.672Z,93.26
2024-02-09T14:27:34.533Z,93.31
2024-02-09T14:30:02.514Z,93.33
2024-02-09T14:32:30.405Z,93.38
2024-02-09T14:34:58.235Z,93.39
2024-02-09T14:37:29.121Z,93.41
2024-02-09T14:39:57.278Z,93.41
2024-02-09T14:42:25.704Z,93.44
2024-02-09T14:44:54.102Z,93.48
2024-02-09T14:47:23.380Z,93.50
2024-02-09T14:49:52.019Z,93.53
2024-02-09T14:52:20.842Z,93.56
2024-02-09T14:54:51.068Z,93.61
2024-02-09T14:57:18.960Z,93.66
2024-02-09T14:59:47.977Z,93.73
2024-02-09T15:02:16.253Z,93.78
2024-02-09T15:04:45.081Z,93.84
2024-02-09T15:07:15.379Z,93.89
2024-02-09T15:09:43.175Z,93.93
2024-02-09T15:12:13.687Z,93.95
2024-02-09T15:14:41.665Z,93.96
2024-02-09T15:17:09.540Z,93.99
2024-02-09T15:19:37.720Z,94.03
2024-02-09T15:22:05.992Z,94.06
2024-02-09T15:24:36.910Z,94.08
2024-02-09T15:27:05.971Z,94.10
2024-02-09T15:29:33.935Z,94.13
2024-02-09T15:32:01.708Z,94.15
2024-02-09T15:34:29.805Z,94.20
2024-02-09T15:37:01.497Z,94.25
2024-02-09T15:39:29.739Z,94.29
2024-02-09T15:42:01.017Z,94.32
2024-02-09T15:44:29.386Z,94.33
2024-02-09T15:46:58.275Z,94.35
2024-02-09T15:49:26.496Z,94.40
2024-02-09T15:51:57.998Z,94.41
2024-02-09T15:54:25.734Z,94.47
2024-02-09T15:56:53.450Z,94.50
2024-02-09T15:59:21.300Z,94.51
2024-02-09T16:01:51.019Z,94.51
2024-02-09T16:04:19.670Z,94.51
2024-02-09T16:06:49.513Z,94.51
2024-02-09T16:09:19.331Z,94.50
2024-02-09T16:11:47.764Z,94.49
2024-02-09T16:14:15.690Z,94.51
2024-02-09T16:16:45.105Z,94.53
2024-02-09T16:19:13.195Z,94.53
2024-02-09T16:21:42.532Z,94.53
2024-02-09T16:24:11.696Z,94.56
2024-02-09T16:26:40.590Z,94.57
2024-02-09T16:29:12.473Z,94.57
2024-02-09T16:31:41.731Z,94.59
2024-02-09T16:34:09.760Z,94.61
2024-02-09T16:36:40.760Z,94.60
2024-02-09T16:39:08.490Z,94.61
2024-02-09T16:41:36.222Z,94.63
2024-02-09T16:44:04.629Z,94.66
2024-02-09T16:46:32.579Z,94.70
2024-02-09T16:49:01.424Z,94.72
2024-02-09T16:51:29.357Z,94.74
2024-02-09T16:53:59.102Z,94.77
2024-02-09T16:56:26.955Z,94.79
2024-02-09T16:58:54.872Z,94.81
2024-02-09T17:01:23.218Z,94.83
2024-02-09T17:03:52.327Z,94.86
2024-02-09T17:06:20.680Z,94.89
2024-02-09T17:08:48.672Z,94.90
2024-02-09T17:11:16.389Z,94.88
2024-02-09T17:13:47.053Z,94.88
2024-02-09T17:16:15.154Z,94.88
2024-02-09T17:18:43.368Z,94.89
2024-02-09T17:21:14.081Z,94.90
2024-02-09T17:23:42.598Z,94.90
2024-02-09T17:26:11.072Z,94.92
2024-02-09T17:28:38.921Z,94.93
2024-02-09T17:31:08.457Z,94.94
2024-02-09T17:33:36.302Z,94.94
2024-02-09T17:36:05.254Z,94.94
2024-02-09T17:38:32.997Z,94.95
2024-02-09T17:41:07.985Z,94.96
2024-02-09T17:43:38.540Z,94.96
2024-02-09T17:46:07.236Z,94.97
2024-02-09T17:48:36.129Z,94.98
2024-02-09T17:51:07.160Z,94.98
2024-02-09T17:53:35.382Z,94.98
2024-02-09T17:56:04.793Z,95.01
2024-02-09T17:58:32.627Z,95.02
2024-02-09T18:01:00.700Z,95.04
2024-02-09T18:03:28.676Z,95.04
2024-02-09T18:05:56.518Z,95.04
2024-02-09T18:08:25.238Z,95.04
2024-02-09T18:10:53.224Z,95.03
2024-02-09T18:13:21.096Z,95.03
2024-02-09T18:15:49.809Z,95.05
2024-02-09T18:18:18.129Z,95.05
2024-02-09T18:20:46.792Z,95.05
2024-02-09T18:23:14.540Z,95.06
2024-02-09T18:25:42.465Z,95.07
2024-02-09T18:28:10.995Z,95.06
2024-02-09T18:30:40.286Z,95.06
2024-02-09T18:33:09.166Z,95.06
2024-02-09T18:35:37.157Z,95.06
2024-02-09T18:38:04.854Z,95.06
2024-02-09T18:40:32.677Z,95.06
2024-02-09T18:43:00.584Z,95.05
2024-02-09T18:45:28.751Z,95.05
2024-02-09T18:47:56.581Z,95.05
2024-02-09T18:50:24.961Z,95.04
2024-02-09T18:52:52.739Z,95.05
2024-02-09T18:55:22.048Z,95.06
2024-02-09T18:57:50.159Z,95.05
2024-02-09T19:00:20.329Z,95.06
2024-02-09T19:02:48.943Z,95.06
2024-02-09T19:05:18.573Z,95.06
2024-02-09T19:07:47.567Z,95.07
2024-02-09T19:10:15.539Z,95.06
2024-02-09T19:12:44.083Z,95.07
2024-02-09T19:15:14.691Z,95.08
2024-02-09T19:17:42.607Z,95.09
2024-02-09T19:20:11.415Z,95.08
2024-02-09T19:22:39.372Z,95.08
2024-02-09T19:25:07.781Z,95.09
2024-02-09T19:27:36.167Z,95.10
2024-02-09T19:30:04.448Z,95.10
2024-02-09T19:32:32.195Z,95.12
2024-02-09T19:35:00.559Z,95.13
2024-02-09T19:37:29.688Z,95.14
2024-02-09T19:39:57.528Z,95.15
2024-02-09T19:42:27.529Z,95.15
2024-02-09T19:44:56.729Z,95.17
2024-02-09T19:47:24.968Z,95.17
2024-02-09T19:49:53.864Z,95.18
2024-02-09T19:52:22.036Z,95.17
2024-02-09T19:54:50.293Z,95.17
2024-02-09T19:57:18.370Z,95.18
2024-02-09T19:59:50.106Z,95.19
2024-02-09T20:02:27.510Z,95.20
2024-02-09T20:04:59.849Z,95.20
2024-02-09T20:07:29.331Z,95.20
2024-02-09T20:09:58.996Z,95.21
2024-02-09T20:12:27.050Z,95.22
2024-02-09T20:14:57.024Z,95.23
2024-02-09T20:17:27.313Z,95.24
2024-02-09T20:19:55.415Z,95.24
2024-02-09T20:22:23.523Z,95.24
2024-02-09T20:24:51.515Z,95.25
2024-02-09T20:27:19.872Z,95.25
2024-02-09T20:29:47.674Z,95.25
2024-02-09T20:32:15.408Z,95.26
2024-02-09T20:34:44.400Z,95.26
2024-02-09T20:37:15.724Z,95.26
2024-02-09T20:39:43.751Z,95.27
2024-02-09T20:42:11.549Z,95.27
2024-02-09T20:44:41.478Z,95.28
2024-02-09T20:47:11.093Z,95.29
2024-02-09T20:49:42.488Z,95.28
2024-02-09T20:52:13.114Z,95.29
2024-02-09T20:54:42.065Z,95.29
2024-02-09T20:57:09.917Z,95.30
2024-02-09T20:59:42.158Z,95.30
2024-02-09T21:02:10.562Z,95.30
2024-02-09T21:04:38.874Z,95.32
2024-02-09T21:07:06.576Z,95.32
2024-02-09T21:09:34.308Z,95.34
2024-02-09T21:12:07.261Z,95.34
2024-02-09T21:14:35.049Z,95.35
2024-02-09T21:17:02.890Z,95.36
2024-02-09T21:19:30.663Z,95.36
2024-02-09T21:22:00.161Z,95.37
2024-02-09T21:24:28.676Z,95.38
2024-02-09T21:26:57.289Z,95.40
2024-02-09T21:29:24.974Z,95.39
2024-02-09T21:31:52.751Z,95.41
2024-02-09T21:34:21.279Z,95.41
2024-02-09T21:36:49.082Z,95.41
2024-02-09T21:39:17.563Z,95.42
2024-02-09T21:41:45.780Z,95.42
2024-02-09T21:44:15.110Z,95.42
2024-02-09T21:46:42.874Z,95.42
2024-02-09T21:49:10.790Z,95.43
2024-02-09T21:51:38.551Z,95.43
2024-02-09T21:54:07.125Z,95.43
2024-02-09T21:56:35.065Z,95.44
2024-02-09T21:59:04.662Z,95.45
2024-02-09T22:01:33.090Z,95.46
2024-02-09T22:04:02.138Z,95.46
2024-02-09T22:06:31.513Z,95.48
2024-02-09T22:08:59.199Z,95.48
2024-02-09T22:11:27.019Z,95.48
2024-02-09T22:13:55.350Z,95.48
2024-02-09T22:16:23.255Z,95.49
2024-02-09T22:18:53.176Z,95.49
2024-02-09T22:21:20.969Z,95.48
2024-02-09T22:23:49.066Z,95.48
2024-02-09T22:26:19.436Z,95.47
2024-02-09T22:28:47.537Z,95.46
2024-02-09T22:31:15.697Z,95.46
2024-02-09T22:33:45.373Z,95.47
2024-02-09T22:36:16.723Z,95.47
2024-02-09T22:38:48.036Z,95.48
2024-02-09T22:41:21.626Z,95.48
2024-02-09T22:43:54.914Z,95.48
2024-02-09T22:46:23.300Z,95.49
2024-02-09T22:48:51.614Z,95.50
2024-02-09T22:51:21.018Z,95.51
2024-02-09T22:53:53.156Z,95.51
2024-02-09T22:56:22.234Z,95.52
2024-02-09T22:58:50.711Z,95.53
2024-02-09T23:01:19.048Z,95.53
2024-02-09T23:03:49.557Z,95.54
2024-02-09T23:06:20.976Z,95.54
2024-02-09T23:08:51.273Z,95.54
2024-02-09T23:11:21.991Z,95.54
2024-02-09T23:13:50.980Z,95.55
2024-02-09T23:16:19.413Z,95.56
2024-02-09T23:18:48.009Z,95.57
2024-02-09T23:21:15.855Z,95.57
2024-02-09T23:23:45.024Z,95.58
2024-02-09T23:26:14.561Z,95.60
2024-02-09T23:28:42.446Z,95.59
2024-02-09T23:31:10.366Z,95.59
2024-02-09T23:33:38.367Z,95.59
2024-02-09T23:36:06.831Z,95.60
2024-02-09T23:38:36.605Z,95.61
2024-02-09T23:41:04.798Z,95.61
2024-02-09T23:43:33.649Z,95.61
2024-02-09T23:46:01.922Z,95.59
2024-02-09T23:48:29.866Z,95.59
2024-02-09T23:50:58.647Z,95.61
2024-02-09T23:53:27.792Z,95.63
2024-02-09T23:55:55.701Z,95.65
2024-02-09T23:58:24.734Z,95.67
